Flight Track Log - Related Links

Times and Time Zones

All times are in EDT time to prevent confusion due to time zone crossing. See the VNR187 flight status page for this flight to view local times or setup timezone preferences in your user account.

Time Position Orientation Groundspeed Altitude Reporting Facility
EDT Latitude Longitude Course Direction KTS MPH feet Rate Location/Type
Mon 01:05:57 PM 27.6814 -80.4681 306° West 280 322 1,600  Level Miami Center
Mon 01:06:57 PM 27.7094 -80.5111 306° West 229 264 3,600 1,850 Climbing Miami Center
Mon 01:07:57 PM 27.7400 -80.5450 316° Northwest 180 207 5,300 1,983 Climbing Miami Center
Mon 01:08:58 PM 27.7783 -80.5886 315° West 175 201 7,600 2,200 Climbing Miami Center
Mon 01:09:57 PM 27.8128 -80.6294 314° West 175 201 9,700 1,850 Climbing Miami Center
Mon 01:10:58 PM 27.8303 -80.6817 291° West 170 196 11,300 1,700 Climbing Miami Center
Mon 01:11:57 PM 27.8456 -80.7317 289° West 177 204 13,100 1,765 Climbing Miami Center
Mon 01:12:57 PM 27.8608 -80.7883 287° West 187 215 14,800 1,750 Climbing Miami Center
Mon 01:13:57 PM 27.8781 -80.8453 289° West 187 215 16,600 1,700 Climbing Miami Center
Mon 01:14:57 PM 27.8950 -80.9072 287° West 187 215 18,200 1,600 Climbing Miami Center
Mon 01:15:57 PM 27.9314 -80.9553 311° West 187 215 19,800 1,488 Climbing Miami Center
Mon 01:16:58 PM 27.9867 -80.9881 332° Northwest 194 223 21,200 1,200 Climbing Miami Center
Mon 01:17:57 PM 28.0461 -81.0253 331° Northwest 221 254 22,200 1,100 Climbing Miami Center
Mon 01:18:58 PM 28.1097 -81.0631 332° Northwest 239 275 23,400 1,350 Climbing Miami Center
Mon 01:19:57 PM 28.1733 -81.1031 331° Northwest 254 292 24,900 1,300 Climbing Miami Center
Mon 01:20:58 PM 28.2347 -81.1431 330° Northwest 264 304 26,000 942 Climbing Miami Center
Mon 01:21:58 PM 28.3000 -81.1856 330° Northwest 264 304 26,800 857 Climbing Miami Center
Mon 01:22:57 PM 28.3617 -81.2233 332° Northwest 264 304 27,700 908 Climbing Miami Center
Mon 01:23:57 PM 28.4292 -81.2614 334° Northwest 264 304 28,600 1,000 Climbing Miami Center
Mon 01:24:57 PM 28.4928 -81.3017 331° Northwest 264 304 29,700 950 Climbing Miami Center
Mon 01:25:57 PM 28.5625 -81.3353 337° Northwest 264 304 30,500 645 Climbing Miami Center
Mon 01:26:58 PM 28.6478 -81.3481 353° North 269 310 31,000 330 Climbing Miami Center
Mon 01:27:28 PM 28.6833 -81.3519 355° North 271 312 31,000  Level Jacksonville Center
Mon 01:28:27 PM 28.7711 -81.3600 355° North 299 344 31,000  Level Jacksonville Center
Mon 01:29:27 PM 28.8631 -81.3681 356° North 314 361 31,000  Level Jacksonville Center
Mon 01:30:27 PM 28.9569 -81.3761 356° North 326 375 31,000  Level Jacksonville Center
Mon 01:31:27 PM 29.0511 -81.3867 354° North 331 381 31,000  Level Jacksonville Center
Mon 01:32:28 PM 29.1450 -81.3947 356° North 331 381 31,000  Level Jacksonville Center
Mon 01:33:28 PM 29.2369 -81.4028 356° North 331 381 31,000  Level Jacksonville Center
Mon 01:34:27 PM 29.3311 -81.4158 353° North 331 381 31,000  Level Jacksonville Center
Mon 01:35:28 PM 29.4250 -81.4239 356° North 331 381 31,000  Level Jacksonville Center
Mon 01:36:28 PM 29.5211 -81.4319 356° North 331 381 31,000  Level Jacksonville Center
Mon 01:37:27 PM 29.6153 -81.4400 356° North 331 381 31,000  Level Jacksonville Center
Mon 01:38:28 PM 29.7114 -81.4506 355° North 336 387 31,000  Level Jacksonville Center
Mon 01:39:27 PM 29.8056 -81.4589 356° North 336 387 31,000  Level Jacksonville Center
Mon 01:40:27 PM 29.9017 -81.4669 356° North 336 387 31,000  Level Jacksonville Center
Mon 01:41:28 PM 29.9956 -81.4775 354° North 336 387 31,000  Level Jacksonville Center
Mon 01:42:28 PM 30.0917 -81.4833 357° North 336 387 31,000  Level Jacksonville Center
Mon 01:43:27 PM 30.1878 -81.4939 355° North 336 387 31,000  Level Jacksonville Center
Mon 01:44:28 PM 30.2819 -81.5022 356° North 336 387 31,000  Level Jacksonville Center
Mon 01:45:27 PM 30.3822 -81.5056 358° North 347 399 31,000  Level Jacksonville Center
Mon 01:46:27 PM 30.4967 -81.4847 North 365 420 31,000  Level Jacksonville Center
Mon 01:47:27 PM 30.6008 -81.4661 North 372 428 31,000  Level Jacksonville Center
Mon 01:48:28 PM 30.7050 -81.4478 North 372 428 31,000  Level Jacksonville Center
Mon 01:49:27 PM 30.8094 -81.4317 North 372 428 31,000  Level Jacksonville Center
Mon 01:50:27 PM 30.9136 -81.4131 North 372 428 31,000  Level Jacksonville Center
Mon 01:51:28 PM 31.0156 -81.3969 North 367 422 31,000  Level Jacksonville Center
Mon 01:52:27 PM 31.1178 -81.3808 North 372 428 31,000  Level Jacksonville Center
Mon 01:53:28 PM 31.2178 -81.3622 North 364 419 31,000  Level Jacksonville Center
Mon 01:54:28 PM 31.3178 -81.3436 North 362 417 31,000  Level Jacksonville Center
Mon 01:55:27 PM 31.4197 -81.3247 North 362 417 31,000  Level Jacksonville Center
Mon 01:56:28 PM 31.5197 -81.3061 North 367 422 31,000  Level Jacksonville Center
Mon 01:57:27 PM 31.6108 -81.2433 30° Northeast 391 450 31,000  Level Jacksonville Center
Mon 01:58:27 PM 31.7139 -81.1489 38° Northeast 430 495 31,000  Level Jacksonville Center
Mon 01:59:28 PM 31.8108 -81.0614 37° Northeast 441 507 31,000  Level Jacksonville Center
Mon 02:00:28 PM 31.9078 -80.9714 38° Northeast 436 502 31,000  Level Jacksonville Center
Mon 02:01:28 PM 31.9983 -80.8864 39° Northeast 436 502 31,000  Level Jacksonville Center
Mon 02:02:28 PM 32.0847 -80.8083 37° Northeast 430 495 31,000  Level Jacksonville Center
Mon 02:03:27 PM 32.1772 -80.7203 39° Northeast 430 495 31,000  Level Jacksonville Center
Mon 02:04:27 PM 32.2694 -80.6322 39° Northeast 425 489 31,000  Level Jacksonville Center
Mon 02:05:27 PM 32.3619 -80.5461 38° Northeast 425 489 31,000  Level Jacksonville Center
Mon 02:06:28 PM 32.4542 -80.4578 39° Northeast 420 483 31,000  Level Jacksonville Center
Mon 02:07:27 PM 32.5444 -80.3714 39° Northeast 420 483 31,000  Level Jacksonville Center
Mon 02:08:27 PM 32.6406 -80.2825 38° Northeast 420 483 31,000  Level Jacksonville Center
Mon 02:09:27 PM 32.7306 -80.1933 40° Northeast 420 483 31,000  Level Jacksonville Center
Mon 02:10:28 PM 32.8369 -80.0939 38° Northeast 420 483 31,000  Level Jacksonville Center
Mon 02:11:27 PM 32.9308 -80.0019 39° Northeast 425 489 31,000  Level Jacksonville Center
Mon 02:12:27 PM 33.0247 -79.9097 39° Northeast 425 489 31,000  Level Jacksonville Center
Mon 02:13:27 PM 33.1167 -79.8222 39° Northeast 425 489 31,000  Level Jacksonville Center
Mon 02:14:28 PM 33.2103 -79.7297 40° Northeast 425 489 31,000  Level Jacksonville Center
Mon 02:15:27 PM 33.3019 -79.6419 39° Northeast 431 496 31,000  Level Jacksonville Center
Mon 02:16:27 PM 33.3956 -79.5514 39° Northeast 431 496 31,000  Level Jacksonville Center
Mon 02:17:27 PM 33.4872 -79.4608 39° Northeast 431 496 31,000  Level Jacksonville Center
Mon 02:18:27 PM 33.5786 -79.3725 39° Northeast 431 496 31,000  Level Jacksonville Center
Mon 02:19:27 PM 33.6719 -79.2789 40° Northeast 426 490 31,000  Level Jacksonville Center
Mon 02:20:28 PM 33.7592 -79.1956 38° Northeast 421 484 31,000  Level Jacksonville Center
Mon 02:22:37 PM 33.9458 -79.0086 40° Northeast 414 476 31,000  Level Washington Center
Mon 02:23:37 PM 34.0381 -78.9197 39° Northeast 419 482 31,000  Level Washington Center
Mon 02:24:38 PM 34.1303 -78.8283 39° Northeast 419 482 31,000  Level Washington Center
Mon 02:25:38 PM 34.2244 -78.7364 39° Northeast 424 488 31,000  Level Washington Center
Mon 02:26:36 PM 34.3164 -78.6469 39° Northeast 424 488 31,000  Level Washington Center
Mon 02:27:38 PM 34.4064 -78.5522 41° Northeast 424 488 31,000  Level Washington Center
Mon 02:28:38 PM 34.5006 -78.4597 39° Northeast 424 488 31,000  Level Washington Center
Mon 02:29:36 PM 34.5903 -78.3644 41° Northeast 429 494 31,000  Level Washington Center
Mon 02:30:36 PM 34.6864 -78.2694 39° Northeast 429 494 31,000  Level Washington Center
Mon 02:31:37 PM 34.7803 -78.1739 40° Northeast 435 501 31,000  Level Washington Center
Mon 02:32:38 PM 34.8786 -78.0681 41° Northeast 435 501 31,000  Level Washington Center
Mon 02:33:36 PM 34.9703 -77.9719 41° Northeast 435 501 31,000  Level Washington Center
Mon 02:34:37 PM 35.0617 -77.8783 40° Northeast 435 501 31,000  Level Washington Center
Mon 02:35:38 PM 35.1511 -77.7817 41° Northeast 432 497 31,000  Level Washington Center
Mon 02:36:38 PM 35.2489 -77.6828 40° Northeast 437 503 31,000  Level Washington Center
Mon 02:37:36 PM 35.3425 -77.5858 40° Northeast 437 503 31,000  Level Washington Center
Mon 02:38:36 PM 35.4314 -77.5064 36° Northeast 437 503 31,000  Level Washington Center
Mon 02:39:37 PM 35.5308 -77.4194 35° Northeast 437 503 31,000  Level Washington Center
Mon 02:40:38 PM 35.6281 -77.3347 35° Northeast 437 503 31,000  Level Washington Center
Mon 02:41:38 PM 35.7272 -77.2475 36° Northeast 432 497 31,000  Level Washington Center
Mon 02:42:36 PM 35.8286 -77.1600 35° Northeast 432 497 31,000  Level Washington Center
Mon 02:43:37 PM 35.9342 -77.0644 36° Northeast 432 497 31,000  Level Washington Center
Mon 02:44:38 PM 36.0353 -76.9789 34° Northeast 432 497 31,000  Level Washington Center
Mon 02:45:36 PM 36.1406 -76.9036 30° Northeast 437 503 31,000  Level Washington Center
Mon 02:46:36 PM 36.2456 -76.8256 31° Northeast 437 503 31,000  Level Washington Center
Mon 02:47:37 PM 36.3528 -76.7500 30° Northeast 432 497 31,000  Level Washington Center
Mon 02:48:37 PM 36.4558 -76.6739 31° Northeast 432 497 31,000  Level Washington Center
Mon 02:49:38 PM 36.5608 -76.5978 30° Northeast 432 497 31,000  Level Washington Center
Mon 02:50:36 PM 36.6678 -76.5189 31° Northeast 432 497 31,000  Level Washington Center
Mon 02:51:36 PM 36.7686 -76.4397 32° Northeast 432 497 31,000  Level Washington Center
Mon 02:52:37 PM 36.8628 -76.3708 30° Northeast 437 503 31,000  Level Washington Center
Mon 02:53:37 PM 36.9678 -76.2911 31° Northeast 437 503 31,000  Level Washington Center
Mon 02:54:38 PM 37.0725 -76.2142 30° Northeast 437 503 31,000  Level Washington Center
Mon 02:55:36 PM 37.1811 -76.1392 29° Northeast 437 503 31,000  Level Washington Center
Mon 02:56:36 PM 37.2858 -76.0592 31° Northeast 437 503 31,000  Level Washington Center
Mon 02:57:37 PM 37.3903 -75.9814 31° Northeast 437 503 31,000  Level Washington Center
Mon 02:58:38 PM 37.4950 -75.9006 31° Northeast 437 503 31,000  Level Washington Center
Mon 02:59:36 PM 37.6014 -75.8172 32° Northeast 443 510 31,000  Level Washington Center
Mon 03:00:36 PM 37.7081 -75.7361 31° Northeast 443 510 31,000  Level Washington Center
Mon 03:01:37 PM 37.8122 -75.6550 32° Northeast 443 510 31,000  Level Washington Center
Mon 03:02:37 PM 37.9186 -75.5733 31° Northeast 443 510 31,000  Level Washington Center
Mon 03:03:38 PM 38.0250 -75.4969 29° Northeast 443 510 31,000  Level Washington Center
Mon 03:04:36 PM 38.1356 -75.4203 29° Northeast 443 510 31,000  Level Washington Center
Mon 03:05:36 PM 38.2436 -75.3433 29° Northeast 443 510 31,000  Level Washington Center
Mon 03:06:36 PM 38.3542 -75.2792 24° Northeast 433 498 31,000  Level Washington Center
Mon 03:07:37 PM 38.4644 -75.2100 26° Northeast 433 498 31,000  Level Washington Center
Mon 03:08:38 PM 38.5767 -75.1403 26° Northeast 433 498 31,000  Level Washington Center
Mon 03:09:38 PM 38.6869 -75.0650 28° Northeast 433 498 31,000  Level Washington Center
Mon 03:10:36 PM 38.7992 -74.9950 26° Northeast 438 504 31,000  Level Washington Center
Mon 03:11:36 PM 38.9114 -74.9194 28° Northeast 438 504 31,000  Level Washington Center
Mon 03:12:37 PM 39.0214 -74.8489 26° Northeast 443 510 31,000  Level Washington Center
Mon 03:13:37 PM 39.1272 -74.7728 29° Northeast 443 510 31,000 -91 Level Washington Center
Mon 03:15:55 PM 39.3617 -74.5275 39° Northeast 445 512 30,700 -2,121 Descending New York Center
Mon 03:16:55 PM 39.4672 -74.4200 38° Northeast 455 524 24,000 -2,975 Descending New York Center
Mon 03:17:54 PM 39.5664 -74.3119 40° Northeast 467 537 24,800  Climbing New York Center
Mon 03:18:55 PM 39.6611 -74.2144 38° Northeast 456 525 24,000 -397 Descending New York Center
Mon 03:19:55 PM 39.7536 -74.1136 40° Northeast 443 510 24,000  Level New York Center
Mon 03:20:56 PM 39.8397 -74.0206 40° Northeast 438 504 24,000  Level New York Center
Mon 03:21:53 PM 39.9339 -73.9219 39° Northeast 438 504 24,000 -1,313 Level New York Center
Mon 03:24:08 PM 40.1406 -73.7022 39° Northeast 421 484 19,800 -2,092 Descending Boston Center
Mon 03:25:08 PM 40.2311 -73.6089 38° Northeast 414 476 17,200 -1,400 Descending Boston Center
Mon 03:26:08 PM 40.3050 -73.5231 42° Northeast 377 434 17,000 -100 Descending Boston Center
Mon 03:27:08 PM 40.3869 -73.4508 34° Northeast 357 411 17,000  Level Boston Center
Mon 03:28:08 PM 40.4831 -73.4169 15° North 336 387 17,000 -50 Level Boston Center
Mon 03:29:08 PM 40.5792 -73.3828 15° North 342 394 16,900 -529 Descending Boston Center
Mon 03:30:24 PM 40.7000 -73.3333 17° North 346 398 15,800 -794 Descending New York TRACON
Mon 03:31:24 PM 40.7833 -73.3000 17° North 355 409 15,100 -1,050 Descending New York TRACON
Mon 03:32:24 PM 40.8500 -73.2000 49° Northeast 361 415 13,700 -1,500 Descending New York TRACON
Mon 03:33:24 PM 40.9000 -73.1000 56° Northeast 368 423 12,100 -1,650 Descending New York TRACON
Mon 03:34:24 PM 40.9500 -73.0000 56° Northeast 328 377 10,400 -1,632 Descending New York TRACON
Mon 03:35:29 PM 41.0333 -73.0000 360° North 278 320 8,700 -1,632 Descending New York TRACON
Mon 03:36:29 PM 41.0667 -73.0833 298° West 250 288 7,000 -1,650 Descending New York TRACON
Mon 03:37:29 PM 41.1000 -73.1667 298° West 247 284 5,400 -1,000 Descending New York TRACON
Mon 03:38:29 PM 41.1167 -73.2500 285° West 247 284 5,000 -300 Descending New York TRACON
Mon 03:39:29 PM 41.1333 -73.3333 285° West 245 282 4,800 -500 Descending New York TRACON
Mon 03:40:29 PM 41.1667 -73.4333 294° West 244 281 4,000 -645 Descending New York TRACON
Mon 03:41:30 PM 41.1500 -73.5000 252° West 210 242 3,500 -942 Descending New York TRACON
Mon 03:42:30 PM 41.1167 -73.5500 229° Southwest 231 266 2,100 -756 Descending New York TRACON
Mon 03:43:29 PM 41.0500 -73.5667 191° South 203 234 2,000 -50 Descending New York TRACON
Mon 03:44:29 PM 41.0000 -73.5833 194° South 204 235 2,000  Level New York TRACON

Login

Don't have an account? Register now (free) for customized features, flight alerts, and more!